CheckWX is a tool to help pilots better visualize weather data.  It is not intended as a substitute for an official pre-flight weather briefing.

11:08:15 UTC

KSUS TAF
Spirit of St Louis Airport
St Louis, Missouri, USA
KSUS 141019Z 1410/1506 00000KT 3SM BR SCT002 TEMPO 1410/1413 1/2SM FG VV001 FM141400 VRB04KT P6SM SKC

Oct-14@
10:00 UTC

Oct-14 @ 10:00 UTC

Oct-14@
14:00 UTC

Oct-14 @ 14:00 UTC

KSUS 141019Z 1410/1506 00000KT 3SM BR SCT002
Conditions
Mist
Cloud Levels
  • Scattered at 200' AGL

Oct-14@
10:00 UTC

Oct-14 @ 10:00 UTC

Oct-14@
13:00 UTC

Oct-14 @ 13:00 UTC

TEMPO 1410/1413 1/2SM FG VV001

Temporary

Temporary Changes expected for less than half the time period

Conditions
Fog
Cloud Levels
  • Vertical visibility at 100' AGL

Oct-14@
14:00 UTC

Oct-14 @ 14:00 UTC

Oct-15@
06:00 UTC

Oct-15 @ 06:00 UTC

FM141400 VRB04KT P6SM SKC

From

From Standard forecast or significant change

Wind
  • Variable at 4 KTS
Cloud Levels
  • Clear skies